www.winti-wetter.ch
Wetterdaten: aktuell Donnerstag, 23.09.2021 10:05
Datum Zeit Temp. A. Feuchte A. Luftdruck Regen Wind Richtung Richtung Sonnenschein T Zeit Regen Solar Windben
23.09.2021 10:05 11.3 C 93 % 1022.7 hPa 0.0 l/m 4.3 km/h W-SW 256 0 min 0 min 93 W/m 8.0 km/h
23.09.2021 10:00 11.3 C 93 % 1022.7 hPa 0.0 l/m 2.8 km/h S-SW 213 0 min 0 min 141 W/m 6.4 km/h
23.09.2021 09:55 11.3 C 94 % 1022.7 hPa 0.0 l/m 0.8 km/h S-SW 198 0 min 0 min 134 W/m 3.2 km/h
23.09.2021 09:50 11.1 C 95 % 1022.7 hPa 0.0 l/m 2.7 km/h S-SW 198 0 min 0 min 123 W/m 6.4 km/h
23.09.2021 09:45 10.8 C 95 % 1022.8 hPa 0.0 l/m 1.6 km/h S-SW 202 0 min 0 min 107 W/m 4.8 km/h
23.09.2021 09:40 10.7 C 95 % 1022.9 hPa 0.0 l/m 0.6 km/h S 180 0 min 0 min 105 W/m 3.2 km/h
23.09.2021 09:35 10.4 C 95 % 1022.8 hPa 0.0 l/m 2.2 km/h S 180 0 min 0 min 115 W/m 4.8 km/h
23.09.2021 09:30 10.3 C 95 % 1022.7 hPa 0.0 l/m 2.1 km/h S 180 0 min 0 min 125 W/m 4.8 km/h
23.09.2021 09:25 10.1 C 96 % 1022.5 hPa 0.0 l/m 3.1 km/h S 180 0 min 0 min 125 W/m 6.4 km/h
23.09.2021 09:20 10.0 C 96 % 1022.5 hPa 0.0 l/m 2.9 km/h S-SO 162 0 min 0 min 120 W/m 8.0 km/h
23.09.2021 09:15 9.7 C 96 % 1022.5 hPa 0.0 l/m 2.1 km/h S-SW 195 0 min 0 min 109 W/m 8.0 km/h
23.09.2021 09:10 9.3 C 96 % 1022.6 hPa 0.0 l/m 0.1 km/h S-SO 158 0 min 0 min 102 W/m 1.6 km/h
23.09.2021 09:05 8.9 C 96 % 1022.6 hPa 0.0 l/m 0.1 km/h S-SO 158 0 min 0 min 91 W/m 1.6 km/h
23.09.2021 09:00 8.7 C 96 % 1022.7 hPa 0.0 l/m 0.1 km/h S-SO 158 0 min 0 min 83 W/m 1.6 km/h
23.09.2021 08:55 8.6 C 96 % 1022.8 hPa 0.0 l/m 0.7 km/h S-SO 158 0 min 0 min 81 W/m 3.2 km/h
23.09.2021 08:50 8.7 C 96 % 1022.8 hPa 0.0 l/m 0.4 km/h S-SO 158 0 min 0 min 79 W/m 1.6 km/h
23.09.2021 08:45 8.6 C 96 % 1022.8 hPa 0.0 l/m 1.7 km/h S-SO 158 0 min 0 min 69 W/m 3.2 km/h
23.09.2021 08:40 8.6 C 96 % 1022.8 hPa 0.0 l/m 1.8 km/h S-SO 158 0 min 0 min 66 W/m 3.2 km/h
23.09.2021 08:35 8.5 C 96 % 1022.6 hPa 0.0 l/m 1.9 km/h S-SO 158 0 min 0 min 63 W/m 3.2 km/h
23.09.2021 08:30 8.3 C 97 % 1022.8 hPa 0.0 l/m 1.1 km/h S-SO 158 0 min 0 min 51 W/m 3.2 km/h
23.09.2021 08:25 8.2 C 97 % 1022.9 hPa 0.0 l/m 0.4 km/h S-SO 158 0 min 0 min 48 W/m 1.6 km/h
23.09.2021 08:20 8.0 C 96 % 1022.8 hPa 0.0 l/m 0.8 km/h S-SO 158 0 min 0 min 47 W/m 3.2 km/h
23.09.2021 08:15 7.7 C 97 % 1022.8 hPa 0.0 l/m 0.4 km/h S-SO 158 0 min 0 min 42 W/m 1.6 km/h
23.09.2021 08:10 7.4 C 96 % 1022.9 hPa 0.0 l/m 1.4 km/h S-SO 158 0 min 0 min 45 W/m 3.2 km/h
23.09.2021 08:05 7.3 C 96 % 1022.9 hPa 0.0 l/m 1.3 km/h S-SO 158 0 min 0 min 37 W/m 3.2 km/h
23.09.2021 08:00 7.5 C 96 % 1023.0 hPa 0.0 l/m 2.2 km/h S-SO 158 0 min 0 min 32 W/m 6.4 km/h
23.09.2021 07:55 7.6 C 97 % 1023.2 hPa 0.0 l/m 1.1 km/h S 169 0 min 0 min 32 W/m 3.2 km/h
23.09.2021 07:50 7.3 C 97 % 1023.1 hPa 0.0 l/m 2.2 km/h S 169 0 min 0 min 29 W/m 6.4 km/h
23.09.2021 07:45 7.2 C 96 % 1023.0 hPa 0.0 l/m 2.0 km/h S-SW 192 0 min 0 min 26 W/m 4.8 km/h
23.09.2021 07:40 7.1 C 97 % 1023.0 hPa 0.0 l/m 1.9 km/h S 191 0 min 0 min 20 W/m 4.8 km/h
23.09.2021 07:35 7.0 C 97 % 1023.1 hPa 0.0 l/m 1.1 km/h S 191 0 min 0 min 18 W/m 3.2 km/h
23.09.2021 07:30 6.8 C 96 % 1023.0 hPa 0.0 l/m 2.2 km/h S 190 0 min 0 min 15 W/m 4.8 km/h
23.09.2021 07:25 6.8 C 97 % 1023.0 hPa 0.0 l/m 5.0 km/h S-SW 196 0 min 0 min 12 W/m 8.0 km/h
23.09.2021 07:20 6.7 C 97 % 1022.9 hPa 0.0 l/m 4.8 km/h S-SW 193 0 min 0 min 9 W/m 8.0 km/h
23.09.2021 07:15 6.5 C 97 % 1023.0 hPa 0.0 l/m 5.8 km/h S 180 0 min 0 min 7 W/m 9.7 km/h
23.09.2021 07:10 6.2 C 96 % 1023.1 hPa 0.0 l/m 1.0 km/h NW 322 0 min 0 min 5 W/m 1.6 km/h
23.09.2021 07:05 6.2 C 96 % 1023.2 hPa 0.0 l/m 1.2 km/h NW 322 0 min 0 min 0 W/m 1.6 km/h
23.09.2021 07:00 6.1 C 96 % 1023.2 hPa 0.0 l/m 0.9 km/h NW 322 0 min 0 min 0 W/m 1.6 km/h
23.09.2021 06:55 6.3 C 96 % 1023.1 hPa 0.0 l/m 1.0 km/h NW 322 0 min 0 min 0 W/m 1.6 km/h
23.09.2021 06:50 6.3 C 96 % 1023.2 hPa 0.0 l/m 1.2 km/h NW 322 0 min 0 min 0 W/m 3.2 km/h
23.09.2021 06:45 6.3 C 96 % 1023.3 hPa 0.0 l/m 1.3 km/h NW 320 0 min 0 min 0 W/m 4.8 km/h
23.09.2021 06:40 6.4 C 97 % 1023.3 hPa 0.0 l/m 1.0 km/h N-NW 327 0 min 0 min 0 W/m 1.6 km/h
23.09.2021 06:35 6.3 C 96 % 1023.3 hPa 0.0 l/m 1.6 km/h N-NW 327 0 min 0 min 0 W/m 3.2 km/h
23.09.2021 06:30 6.2 C 96 % 1023.3 hPa 0.0 l/m 0.5 km/h N-NW 327 0 min 0 min 0 W/m 1.6 km/h
23.09.2021 06:25 6.3 C 96 % 1023.3 hPa 0.0 l/m 0.2 km/h N-NW 327 0 min 0 min 0 W/m 1.6 km/h
23.09.2021 06:20 6.3 C 96 % 1023.4 hPa 0.0 l/m 0.5 km/h N-NW 327 0 min 0 min 0 W/m 1.6 km/h
23.09.2021 06:15 6.2 C 96 % 1023.4 hPa 0.0 l/m 1.1 km/h N-NW 327 0 min 0 min 0 W/m 3.2 km/h
23.09.2021 06:10 6.0 C 96 % 1023.4 hPa 0.0 l/m 0.5 km/h N-NW 327 0 min 0 min 0 W/m 1.6 km/h
23.09.2021 06:05 6.3 C 96 % 1023.4 hPa 0.0 l/m 0.9 km/h N-NW 327 0 min 0 min 0 W/m 1.6 km/h
23.09.2021 06:00 6.3 C 96 % 1023.2 hPa 0.0 l/m 0.5 km/h N-NW 327 0 min 0 min 0 W/m 1.6 km/h
23.09.2021 05:55 6.2 C 96 % 1023.2 hPa 0.0 l/m 0.0 km/h N-NW 327 0 min 0 min 0 W/m 0.0 km/h
23.09.2021 05:50 6.3 C 96 % 1023.2 hPa 0.0 l/m 0.0 km/h N-NW 327 0 min 0 min 0 W/m 0.0 km/h
23.09.2021 05:45 6.4 C 96 % 1023.2 hPa 0.0 l/m 0.0 km/h N-NW 337 0 min 0 min 0 W/m 1.6 km/h
23.09.2021 05:40 6.4 C 96 % 1023.2 hPa 0.0 l/m 1.6 km/h N-NW 337 0 min 0 min 0 W/m 3.2 km/h
23.09.2021 05:35 6.4 C 96 % 1023.2 hPa 0.0 l/m 1.6 km/h N-NW 337 0 min 0 min 0 W/m 3.2 km/h
23.09.2021 05:30 6.3 C 96 % 1023.2 hPa 0.0 l/m 0.0 km/h N-NW 337 0 min 0 min 0 W/m 3.2 km/h
23.09.2021 05:25 6.5 C 96 % 1023.2 hPa 0.0 l/m 0.0 km/h N-NW 337 0 min 0 min 0 W/m 1.6 km/h
23.09.2021 05:20 6.5 C 96 % 1023.2 hPa 0.0 l/m 1.6 km/h N-NW 337 0 min 0 min 0 W/m 3.2 km/h
23.09.2021 05:15 6.6 C 96 % 1023.2 hPa 0.0 l/m 0.4 km/h N-NW 327 0 min 0 min 0 W/m 1.6 km/h
23.09.2021 05:10 6.7 C 96 % 1023.3 hPa 0.0 l/m 0.8 km/h N-NW 327 0 min 0 min 0 W/m 1.6 km/h
23.09.2021 05:05 6.7 C 96 % 1023.2 hPa 0.0 l/m 0.5 km/h N-NW 327 0 min 0 min 0 W/m 3.2 km/h
23.09.2021 05:00 6.6 C 96 % 1023.2 hPa 0.0 l/m 0.0 km/h N-NW 327 0 min 0 min 0 W/m 0.0 km/h
23.09.2021 04:55 6.6 C 96 % 1023.3 hPa 0.0 l/m 0.0 km/h N-NW 327 0 min 0 min 0 W/m 0.0 km/h
23.09.2021 04:50 6.7 C 96 % 1023.4 hPa 0.0 l/m 0.3 km/h N-NW 327 0 min 0 min 0 W/m 1.6 km/h
23.09.2021 04:45 6.8 C 96 % 1023.3 hPa 0.0 l/m 1.3 km/h N-NW 327 0 min 0 min 0 W/m 3.2 km/h
23.09.2021 04:40 6.8 C 96 % 1023.3 hPa 0.0 l/m 0.0 km/h N-NW 327 0 min 0 min 0 W/m 0.0 km/h
23.09.2021 04:35 6.9 C 96 % 1023.3 hPa 0.0 l/m 0.0 km/h N-NW 327 0 min 0 min 0 W/m 0.0 km/h
23.09.2021 04:30 6.9 C 96 % 1023.3 hPa 0.0 l/m 0.0 km/h N-NW 327 0 min 0 min 0 W/m 0.0 km/h
23.09.2021 04:25 7.2 C 96 % 1023.3 hPa 0.0 l/m 0.1 km/h N-NW 327 0 min 0 min 0 W/m 1.6 km/h
23.09.2021 04:20 7.2 C 96 % 1023.2 hPa 0.0 l/m 1.5 km/h N-NW 327 0 min 0 min 0 W/m 3.2 km/h
23.09.2021 04:15 7.1 C 96 % 1023.3 hPa 0.0 l/m 1.8 km/h N-NW 327 0 min 0 min 0 W/m 3.2 km/h
23.09.2021 04:10 7.1 C 96 % 1023.2 hPa 0.0 l/m 1.4 km/h N-NW 327 0 min 0 min 0 W/m 3.2 km/h
23.09.2021 04:05 6.9 C 96 % 1023.2 hPa 0.0 l/m 1.1 km/h N-NW 327 0 min 0 min 0 W/m 1.6 km/h
23.09.2021 04:00 7.0 C 96 % 1023.2 hPa 0.0 l/m 1.3 km/h N-NW 327 0 min 0 min 0 W/m 3.2 km/h
23.09.2021 03:55 7.2 C 96 % 1023.1 hPa 0.0 l/m 0.1 km/h N-NW 327 0 min 0 min 0 W/m 1.6 km/h
23.09.2021 03:50 7.3 C 95 % 1023.3 hPa 0.0 l/m 0.2 km/h N-NW 327 0 min 0 min 0 W/m 1.6 km/h
23.09.2021 03:45 7.4 C 96 % 1023.1 hPa 0.0 l/m 1.2 km/h N-NW 327 0 min 0 min 0 W/m 3.2 km/h
23.09.2021 03:40 7.4 C 95 % 1023.2 hPa 0.0 l/m 1.3 km/h N-NW 327 0 min 0 min 0 W/m 3.2 km/h
23.09.2021 03:35 7.4 C 96 % 1023.4 hPa 0.0 l/m 0.7 km/h N-NW 327 0 min 0 min 0 W/m 1.6 km/h
23.09.2021 03:30 7.6 C 95 % 1023.5 hPa 0.0 l/m 0.5 km/h N-NW 327 0 min 0 min 0 W/m 1.6 km/h
23.09.2021 03:25 7.7 C 95 % 1023.6 hPa 0.0 l/m 0.4 km/h N-NW 327 0 min 0 min 0 W/m 1.6 km/h
23.09.2021 03:20 7.7 C 95 % 1023.6 hPa 0.0 l/m 0.3 km/h N-NW 327 0 min 0 min 0 W/m 1.6 km/h
23.09.2021 03:15 7.7 C 96 % 1023.7 hPa 0.0 l/m 1.7 km/h N-NW 327 0 min 0 min 0 W/m 3.2 km/h
23.09.2021 03:10 7.6 C 96 % 1023.8 hPa 0.0 l/m 1.4 km/h N-NW 327 0 min 0 min 0 W/m 3.2 km/h
23.09.2021 03:05 7.6 C 95 % 1023.8 hPa 0.0 l/m 1.8 km/h N-NW 327 0 min 0 min 0 W/m 3.2 km/h
23.09.2021 03:00 7.7 C 95 % 1023.9 hPa 0.0 l/m 0.7 km/h N-NW 327 0 min 0 min 0 W/m 1.6 km/h
23.09.2021 02:55 7.9 C 95 % 1023.9 hPa 0.0 l/m 0.0 km/h N-NW 327 0 min 0 min 0 W/m 1.6 km/h
23.09.2021 02:50 8.1 C 95 % 1023.9 hPa 0.0 l/m 1.4 km/h N-NW 327 0 min 0 min 0 W/m 3.2 km/h
23.09.2021 02:45 8.1 C 95 % 1024.1 hPa 0.0 l/m 2.2 km/h N-NW 327 0 min 0 min 0 W/m 3.2 km/h
23.09.2021 02:40 8.2 C 95 % 1024.2 hPa 0.0 l/m 1.4 km/h N-NW 327 0 min 0 min 0 W/m 3.2 km/h
23.09.2021 02:35 8.2 C 95 % 1024.2 hPa 0.0 l/m 1.6 km/h N-NW 327 0 min 0 min 0 W/m 3.2 km/h
23.09.2021 02:30 8.2 C 95 % 1024.1 hPa 0.0 l/m 2.2 km/h N-NW 327 0 min 0 min 0 W/m 3.2 km/h
23.09.2021 02:25 8.1 C 95 % 1024.2 hPa 0.0 l/m 2.3 km/h N-NW 327 0 min 0 min 0 W/m 3.2 km/h
23.09.2021 02:20 8.3 C 95 % 1024.2 hPa 0.0 l/m 1.7 km/h N-NW 327 0 min 0 min 0 W/m 3.2 km/h
23.09.2021 02:15 8.6 C 95 % 1024.1 hPa 0.0 l/m 0.3 km/h N-NW 327 0 min 0 min 0 W/m 1.6 km/h
23.09.2021 02:10 8.6 C 95 % 1024.2 hPa 0.0 l/m 0.1 km/h N-NW 327 0 min 0 min 0 W/m 1.6 km/h
23.09.2021 02:05 8.6 C 95 % 1024.2 hPa 0.0 l/m 0.1 km/h N-NW 327 0 min 0 min 0 W/m 1.6 km/h
23.09.2021 02:00 8.6 C 95 % 1024.2 hPa 0.0 l/m 1.1 km/h N-NW 327 0 min 0 min 0 W/m 1.6 km/h
23.09.2021 01:55 8.6 C 94 % 1024.3 hPa 0.0 l/m 1.0 km/h N-NW 327 0 min 0 min 0 W/m 1.6 km/h
23.09.2021 01:50 8.8 C 94 % 1024.3 hPa 0.0 l/m 1.4 km/h N-NW 327 0 min 0 min 0 W/m 3.2 km/h
23.09.2021 01:45 8.8 C 94 % 1024.3 hPa 0.0 l/m 1.0 km/h N-NW 327 0 min 0 min 0 W/m 3.2 km/h
23.09.2021 01:40 9.1 C 94 % 1024.3 hPa 0.0 l/m 0.3 km/h N-NW 327 0 min 0 min 0 W/m 1.6 km/h
23.09.2021 01:35 9.3 C 94 % 1024.3 hPa 0.0 l/m 1.4 km/h N-NW 327 0 min 0 min 0 W/m 3.2 km/h
23.09.2021 01:30 9.4 C 94 % 1024.3 hPa 0.0 l/m 1.9 km/h N-NW 327 0 min 0 min 0 W/m 4.8 km/h
23.09.2021 01:25 9.4 C 94 % 1024.3 hPa 0.0 l/m 2.9 km/h N-NW 327 0 min 0 min 0 W/m 6.4 km/h
23.09.2021 01:20 9.3 C 95 % 1024.2 hPa 0.0 l/m 3.0 km/h N-NW 335 0 min 0 min 0 W/m 4.8 km/h
23.09.2021 01:15 9.1 C 95 % 1024.2 hPa 0.0 l/m 3.9 km/h N-NW 335 0 min 0 min 0 W/m 6.4 km/h
23.09.2021 01:10 8.9 C 95 % 1024.2 hPa 0.0 l/m 4.0 km/h N-NW 339 0 min 0 min 0 W/m 8.0 km/h
23.09.2021 01:05 8.7 C 94 % 1024.2 hPa 0.0 l/m 3.1 km/h N-NO 23 0 min 0 min 0 W/m 4.8 km/h
23.09.2021 01:00 8.8 C 94 % 1024.2 hPa 0.0 l/m 3.1 km/h N-NO 28 0 min 0 min 0 W/m 4.8 km/h
23.09.2021 00:55 8.8 C 94 % 1024.2 hPa 0.0 l/m 2.2 km/h N-NO 28 0 min 0 min 0 W/m 3.2 km/h
23.09.2021 00:50 8.8 C 94 % 1024.3 hPa 0.0 l/m 2.0 km/h N-NO 28 0 min 0 min 0 W/m 3.2 km/h
23.09.2021 00:45 8.9 C 94 % 1024.3 hPa 0.0 l/m 1.7 km/h N-NO 28 0 min 0 min 0 W/m 3.2 km/h
23.09.2021 00:40 8.8 C 93 % 1024.3 hPa 0.0 l/m 1.2 km/h N-NO 28 0 min 0 min 0 W/m 3.2 km/h
23.09.2021 00:35 9.0 C 94 % 1024.4 hPa 0.0 l/m 1.6 km/h N-NO 28 0 min 0 min 0 W/m 3.2 km/h
23.09.2021 00:30 9.1 C 93 % 1024.4 hPa 0.0 l/m 1.3 km/h N-NO 28 0 min 0 min 0 W/m 3.2 km/h
23.09.2021 00:25 9.2 C 93 % 1024.6 hPa 0.0 l/m 1.4 km/h N-NO 28 0 min 0 min 0 W/m 3.2 km/h
23.09.2021 00:20 9.3 C 93 % 1024.6 hPa 0.0 l/m 1.4 km/h N-NO 28 0 min 0 min 0 W/m 3.2 km/h
23.09.2021 00:16 9.3 C 93 % 1024.6 hPa 0.0 l/m 2.8 km/h N-NO 28 0 min 0 min 0 W/m 4.8 km/h
23.09.2021 00:10 9.2 C 93 % 1024.7 hPa 0.0 l/m 1.5 km/h O 89 0 min 0 min 0 W/m 3.2 km/h
23.09.2021 00:05 9.3 C 93 % 1024.6 hPa 0.0 l/m 0.7 km/h O 89 0 min 0 min 0 W/m 1.6 km/h
23.09.2021 00:00 9.3 C 93 % 1024.6 hPa 0.0 l/m 2.0 km/h O 89 0 min 0 min 0 W/m 3.2 km/h
22.09.2021 23:55 9.2 C 93 % 1024.6 hPa 0.0 l/m 2.1 km/h O 89 0 min 0 min 0 W/m 3.2 km/h
22.09.2021 23:50 9.4 C 92 % 1024.7 hPa 0.0 l/m 1.7 km/h O 89 0 min 0 min 0 W/m 3.2 km/h
22.09.2021 23:45 9.5 C 93 % 1024.7 hPa 0.0 l/m 2.4 km/h O 89 0 min 0 min 0 W/m 3.2 km/h
22.09.2021 23:40 9.6 C 92 % 1024.7 hPa 0.0 l/m 1.8 km/h O 89 0 min 0 min 0 W/m 3.2 km/h
22.09.2021 23:35 9.7 C 92 % 1024.6 hPa 0.0 l/m 1.0 km/h O 89 0 min 0 min 0 W/m 3.2 km/h
22.09.2021 23:30 9.8 C 91 % 1024.6 hPa 0.0 l/m 1.6 km/h O 89 0 min 0 min 0 W/m 3.2 km/h
22.09.2021 23:25 9.9 C 91 % 1024.6 hPa 0.0 l/m 1.0 km/h O 89 0 min 0 min 0 W/m 3.2 km/h
22.09.2021 23:20 10.1 C 91 % 1024.6 hPa 0.0 l/m 1.2 km/h O 89 0 min 0 min 0 W/m 3.2 km/h
22.09.2021 23:15 10.2 C 90 % 1024.6 hPa 0.0 l/m 1.3 km/h O 89 0 min 0 min 0 W/m 3.2 km/h
22.09.2021 23:10 10.4 C 91 % 1024.6 hPa 0.0 l/m 1.5 km/h O 89 0 min 0 min 0 W/m 3.2 km/h
22.09.2021 23:05 10.6 C 90 % 1024.6 hPa 0.0 l/m 2.7 km/h O 89 0 min 0 min 0 W/m 4.8 km/h
22.09.2021 23:00 10.6 C 90 % 1024.6 hPa 0.0 l/m 2.2 km/h O 89 0 min 0 min 0 W/m 3.2 km/h
22.09.2021 22:55 10.4 C 91 % 1024.6 hPa 0.0 l/m 1.0 km/h O 89 0 min 0 min 0 W/m 3.2 km/h
22.09.2021 22:50 10.3 C 91 % 1024.6 hPa 0.0 l/m 2.0 km/h O 89 0 min 0 min 0 W/m 3.2 km/h
22.09.2021 22:45 10.2 C 91 % 1024.6 hPa 0.0 l/m 1.9 km/h O 89 0 min 0 min 0 W/m 3.2 km/h
22.09.2021 22:41 10.3 C 91 % 1024.6 hPa 0.0 l/m 1.3 km/h O 89 0 min 0 min 0 W/m 3.2 km/h
22.09.2021 22:35 10.4 C 90 % 1024.6 hPa 0.0 l/m 1.1 km/h O 89 0 min 0 min 0 W/m 3.2 km/h
22.09.2021 22:30 10.7 C 89 % 1024.7 hPa 0.0 l/m 0.9 km/h O 89 0 min 0 min 0 W/m 3.2 km/h
22.09.2021 22:25 10.9 C 90 % 1024.7 hPa 0.0 l/m 3.1 km/h O 89 0 min 0 min 0 W/m 4.8 km/h
22.09.2021 22:20 10.8 C 90 % 1024.8 hPa 0.0 l/m 2.9 km/h N-NW 339 0 min 0 min 0 W/m 4.8 km/h
22.09.2021 22:15 10.7 C 90 % 1024.7 hPa 0.0 l/m 2.6 km/h N-NW 347 0 min 0 min 0 W/m 4.8 km/h
22.09.2021 22:10 10.7 C 90 % 1024.8 hPa 0.0 l/m 2.0 km/h N-NW 347 0 min 0 min 0 W/m 3.2 km/h
22.09.2021 22:05 10.8 C 90 % 1024.8 hPa 0.0 l/m 1.3 km/h N-NW 348 0 min 0 min 0 W/m 3.2 km/h
22.09.2021 22:00 10.8 C 90 % 1024.8 hPa 0.0 l/m 2.2 km/h N-NW 348 0 min 0 min 0 W/m 4.8 km/h
22.09.2021 21:55 10.8 C 90 % 1024.8 hPa 0.0 l/m 2.8 km/h N-NW 348 0 min 0 min 0 W/m 4.8 km/h
22.09.2021 21:50 10.8 C 90 % 1024.9 hPa 0.0 l/m 2.8 km/h N-NW 347 0 min 0 min 0 W/m 4.8 km/h
22.09.2021 21:45 10.9 C 89 % 1024.9 hPa 0.0 l/m 2.7 km/h N-NW 347 0 min 0 min 0 W/m 4.8 km/h
22.09.2021 21:40 11.1 C 89 % 1024.9 hPa 0.0 l/m 2.1 km/h N-NW 348 0 min 0 min 0 W/m 3.2 km/h
22.09.2021 21:35 11.2 C 89 % 1024.9 hPa 0.0 l/m 2.4 km/h N-NW 348 0 min 0 min 0 W/m 4.8 km/h
22.09.2021 21:30 11.1 C 89 % 1024.9 hPa 0.0 l/m 2.3 km/h N-NW 348 0 min 0 min 0 W/m 4.8 km/h
22.09.2021 21:25 11.3 C 88 % 1024.9 hPa 0.0 l/m 0.7 km/h N-NW 348 0 min 0 min 0 W/m 3.2 km/h
22.09.2021 21:20 11.4 C 87 % 1025.0 hPa 0.0 l/m 0.0 km/h N-NW 347 0 min 0 min 0 W/m 0.0 km/h
22.09.2021 21:15 11.5 C 87 % 1025.0 hPa 0.0 l/m 0.5 km/h N-NW 348 0 min 0 min 0 W/m 1.6 km/h
22.09.2021 21:10 11.6 C 87 % 1025.0 hPa 0.0 l/m 1.1 km/h N-NW 347 0 min 0 min 0 W/m 3.2 km/h
22.09.2021 21:05 11.7 C 86 % 1025.0 hPa 0.0 l/m 1.4 km/h N-NW 348 0 min 0 min 0 W/m 3.2 km/h
22.09.2021 21:00 12.0 C 85 % 1025.1 hPa 0.0 l/m 0.8 km/h N-NW 347 0 min 0 min 0 W/m 3.2 km/h
22.09.2021 20:55 12.2 C 85 % 1025.1 hPa 0.0 l/m 1.3 km/h N-NW 347 0 min 0 min 0 W/m 3.2 km/h
22.09.2021 20:50 12.4 C 83 % 1025.0 hPa 0.0 l/m 0.7 km/h N-NW 347 0 min 0 min 0 W/m 3.2 km/h
22.09.2021 20:45 12.4 C 82 % 1025.0 hPa 0.0 l/m 0.9 km/h N-NW 348 0 min 0 min 0 W/m 3.2 km/h
22.09.2021 20:40 12.8 C 82 % 1024.9 hPa 0.0 l/m 1.6 km/h N-NW 347 0 min 0 min 0 W/m 6.4 km/h
22.09.2021 20:35 12.9 C 81 % 1025.0 hPa 0.0 l/m 2.4 km/h N-NO 12 0 min 0 min 0 W/m 4.8 km/h
22.09.2021 20:30 12.9 C 81 % 1025.1 hPa 0.0 l/m 2.8 km/h N 11 0 min 0 min 0 W/m 6.4 km/h
22.09.2021 20:25 13.1 C 80 % 1025.1 hPa 0.0 l/m 2.3 km/h N-NO 12 0 min 0 min 0 W/m 4.8 km/h
22.09.2021 20:20 13.1 C 81 % 1025.1 hPa 0.0 l/m 3.0 km/h N-NO 13 0 min 0 min 0 W/m 6.4 km/h
22.09.2021 20:15 13.2 C 80 % 1025.2 hPa 0.0 l/m 1.9 km/h N-NO 17 0 min 0 min 0 W/m 6.4 km/h
22.09.2021 20:10 13.4 C 80 % 1025.1 hPa 0.0 l/m 2.1 km/h N-NO 18 0 min 0 min 0 W/m 4.8 km/h
22.09.2021 20:05 13.4 C 79 % 1025.1 hPa 0.0 l/m 2.5 km/h N-NO 19 0 min 0 min 0 W/m 4.8 km/h
22.09.2021 20:00 13.4 C 79 % 1025.0 hPa 0.0 l/m 2.9 km/h N-NO 13 0 min 0 min 0 W/m 6.4 km/h
22.09.2021 19:55 13.5 C 79 % 1025.0 hPa 0.0 l/m 3.0 km/h N-NO 19 0 min 0 min 0 W/m 6.4 km/h
22.09.2021 19:50 13.6 C 79 % 1025.0 hPa 0.0 l/m 4.0 km/h N-NW 346 0 min 0 min 0 W/m 6.4 km/h
22.09.2021 19:45 13.6 C 79 % 1025.0 hPa 0.0 l/m 3.0 km/h N-NW 347 0 min 0 min 0 W/m 4.8 km/h
22.09.2021 19:40 13.8 C 78 % 1025.0 hPa 0.0 l/m 2.5 km/h N 10 0 min 0 min 0 W/m 6.4 km/h
22.09.2021 19:35 14.1 C 77 % 1025.0 hPa 0.0 l/m 2.5 km/h N-NO 17 0 min 0 min 0 W/m 4.8 km/h
22.09.2021 19:30 14.0 C 77 % 1025.0 hPa 0.0 l/m 2.4 km/h N-NO 18 0 min 0 min 4 W/m 4.8 km/h
22.09.2021 19:25 14.3 C 76 % 1025.0 hPa 0.0 l/m 2.7 km/h N-NO 19 0 min 0 min 5 W/m 4.8 km/h
22.09.2021 19:20 14.3 C 75 % 1025.0 hPa 0.0 l/m 2.1 km/h N 10 0 min 0 min 9 W/m 4.8 km/h
22.09.2021 19:15 14.6 C 74 % 1024.9 hPa 0.0 l/m 3.1 km/h N 10 0 min 0 min 12 W/m 6.4 km/h
22.09.2021 19:10 14.7 C 74 % 1024.9 hPa 0.0 l/m 2.9 km/h N-NO 13 0 min 0 min 16 W/m 4.8 km/h
22.09.2021 19:05 14.8 C 73 % 1024.8 hPa 0.0 l/m 3.3 km/h O-NO 67 0 min 0 min 19 W/m 8.0 km/h
22.09.2021 19:00 15.0 C 73 % 1024.9 hPa 0.0 l/m 3.0 km/h N 360 0 min 0 min 24 W/m 6.4 km/h
22.09.2021 18:55 15.2 C 71 % 1024.8 hPa 0.0 l/m 3.4 km/h N-NO 16 0 min 0 min 27 W/m 6.4 km/h
22.09.2021 18:50 15.5 C 70 % 1024.8 hPa 0.0 l/m 2.9 km/h N 5 0 min 0 min 33 W/m 6.4 km/h
22.09.2021 18:45 15.6 C 70 % 1024.8 hPa 0.0 l/m 5.4 km/h N 11 0 min 0 min 39 W/m 9.7 km/h
22.09.2021 18:40 15.8 C 68 % 1024.8 hPa 0.0 l/m 3.5 km/h NO 38 0 min 0 min 45 W/m 6.4 km/h
22.09.2021 18:35 15.9 C 67 % 1024.8 hPa 0.0 l/m 5.1 km/h N 355 0 min 0 min 52 W/m 11.3 km/h
22.09.2021 18:30 16.1 C 67 % 1024.8 hPa 0.0 l/m 4.2 km/h NO 34 0 min 0 min 60 W/m 8.0 km/h
22.09.2021 18:25 16.2 C 67 % 1024.9 hPa 0.0 l/m 5.1 km/h NO 36 0 min 0 min 68 W/m 8.0 km/h
22.09.2021 18:20 16.3 C 66 % 1024.9 hPa 0.0 l/m 4.8 km/h NO 46 0 min 0 min 76 W/m 12.9 km/h
22.09.2021 18:15 16.4 C 66 % 1024.9 hPa 0.0 l/m 4.8 km/h N-NO 28 0 min 0 min 87 W/m 9.7 km/h
22.09.2021 18:10 16.7 C 64 % 1024.9 hPa 0.0 l/m 4.9 km/h N-NO 17 0 min 0 min 98 W/m 9.7 km/h
22.09.2021 18:05 16.8 C 64 % 1025.0 hPa 0.0 l/m 6.9 km/h NO 34 5 min 0 min 116 W/m 14.5 km/h
22.09.2021 18:00 16.9 C 63 % 1025.0 hPa 0.0 l/m 4.8 km/h N-NO 30 5 min 0 min 150 W/m 12.9 km/h
22.09.2021 17:55 17.1 C 63 % 1025.0 hPa 0.0 l/m 5.4 km/h N 11 5 min 0 min 161 W/m 11.3 km/h
22.09.2021 17:50 17.2 C 64 % 1025.0 hPa 0.0 l/m 5.0 km/h N-NO 24 5 min 0 min 195 W/m 11.3 km/h
22.09.2021 17:45 17.1 C 63 % 1025.0 hPa 0.0 l/m 5.1 km/h NO 51 5 min 0 min 205 W/m 11.3 km/h
22.09.2021 17:40 16.9 C 64 % 1025.1 hPa 0.0 l/m 4.3 km/h N-NO 29 5 min 0 min 197 W/m 12.9 km/h
22.09.2021 17:35 16.8 C 64 % 1025.1 hPa 0.0 l/m 6.5 km/h O 96 5 min 0 min 165 W/m 20.9 km/h
22.09.2021 17:30 16.8 C 65 % 1025.1 hPa 0.0 l/m 6.4 km/h N-NO 32 0 min 0 min 146 W/m 14.5 km/h
22.09.2021 17:25 16.9 C 65 % 1025.1 hPa 0.0 l/m 6.8 km/h NO 45 0 min 0 min 147 W/m 12.9 km/h
22.09.2021 17:20 16.9 C 65 % 1025.2 hPa 0.0 l/m 5.1 km/h N-NO 28 0 min 0 min 150 W/m 11.3 km/h
22.09.2021 17:15 17.1 C 63 % 1025.2 hPa 0.0 l/m 8.9 km/h N-NO 19 0 min 0 min 161 W/m 19.3 km/h
22.09.2021 17:10 17.3 C 62 % 1025.3 hPa 0.0 l/m 6.7 km/h N-NO 21 0 min 0 min 187 W/m 16.1 km/h
22.09.2021 17:05 17.5 C 62 % 1025.3 hPa 0.0 l/m 7.9 km/h N-NW 344 5 min 0 min 212 W/m 19.3 km/h
22.09.2021 17:00 17.7 C 61 % 1025.3 hPa 0.0 l/m 7.0 km/h NO 46 5 min 0 min 248 W/m 16.1 km/h
22.09.2021 16:55 17.8 C 62 % 1025.5 hPa 0.0 l/m 7.9 km/h N-NO 12 5 min 0 min 304 W/m 17.7 km/h
22.09.2021 16:50 18.0 C 61 % 1025.6 hPa 0.0 l/m 4.8 km/h NO 44 5 min 0 min 351 W/m 17.7 km/h
22.09.2021 16:45 17.9 C 61 % 1025.5 hPa 0.0 l/m 10.6 km/h N 360 5 min 0 min 367 W/m 20.9 km/h
22.09.2021 16:40 17.9 C 62 % 1025.5 hPa 0.0 l/m 7.9 km/h N-NO 26 5 min 0 min 382 W/m 16.1 km/h
22.09.2021 16:35 17.6 C 60 % 1025.7 hPa 0.0 l/m 8.8 km/h O-NO 74 5 min 0 min 322 W/m 17.7 km/h
22.09.2021 16:30 17.6 C 63 % 1025.7 hPa 0.0 l/m 7.6 km/h NO 50 5 min 0 min 310 W/m 19.3 km/h
22.09.2021 16:25 17.8 C 61 % 1025.7 hPa 0.0 l/m 6.6 km/h NO 46 5 min 0 min 290 W/m 16.1 km/h
22.09.2021 16:20 17.6 C 61 % 1025.7 hPa 0.0 l/m 7.3 km/h N-NW 338 5 min 0 min 296 W/m 14.5 km/h
22.09.2021 16:15 17.5 C 61 % 1025.7 hPa 0.0 l/m 9.5 km/h NO 54 5 min 0 min 335 W/m 24.1 km/h
22.09.2021 16:10 17.6 C 59 % 1025.7 hPa 0.0 l/m 9.4 km/h N-NO 17 5 min 0 min 308 W/m 22.5 km/h
22.09.2021 16:05 17.8 C 59 % 1025.9 hPa 0.0 l/m 10.4 km/h NO 43 5 min 0 min 432 W/m 22.5 km/h
22.09.2021 16:00 17.8 C 60 % 1025.7 hPa 0.0 l/m 9.2 km/h NO 38 5 min 0 min 395 W/m 19.3 km/h
22.09.2021 15:55 17.8 C 61 % 1025.8 hPa 0.0 l/m 9.3 km/h O-NO 57 5 min 0 min 398 W/m 17.7 km/h
22.09.2021 15:50 17.8 C 62 % 1025.8 hPa 0.0 l/m 8.5 km/h O-NO 61 5 min 0 min 381 W/m 16.1 km/h
22.09.2021 15:45 17.7 C 62 % 1025.8 hPa 0.0 l/m 7.4 km/h O-NO 74 5 min 0 min 462 W/m 14.5 km/h
22.09.2021 15:40 17.6 C 61 % 1025.8 hPa 0.0 l/m 8.0 km/h NO 55 5 min 0 min 426 W/m 20.9 km/h
22.09.2021 15:35 17.4 C 62 % 1025.8 hPa 0.0 l/m 6.8 km/h O-NO 70 5 min 0 min 376 W/m 16.1 km/h
22.09.2021 15:30 17.2 C 63 % 1025.8 hPa 0.0 l/m 10.3 km/h N 360 5 min 0 min 318 W/m 19.3 km/h
22.09.2021 15:25 17.2 C 63 % 1025.8 hPa 0.0 l/m 7.7 km/h O 87 5 min 0 min 324 W/m 16.1 km/h
22.09.2021 15:20 17.3 C 63 % 1026.0 hPa 0.0 l/m 6.2 km/h O 85 0 min 0 min 296 W/m 17.7 km/h
22.09.2021 15:15 17.4 C 63 % 1026.0 hPa 0.0 l/m 7.6 km/h O 95 0 min 0 min 310 W/m 17.7 km/h
22.09.2021 15:10 17.7 C 64 % 1026.1 hPa 0.0 l/m 7.4 km/h N 360 5 min 0 min 399 W/m 17.7 km/h
22.09.2021 15:05 17.8 C 62 % 1026.2 hPa 0.0 l/m 8.4 km/h O-NO 71 5 min 0 min 433 W/m 16.1 km/h
22.09.2021 15:00 17.8 C 63 % 1026.1 hPa 0.0 l/m 9.9 km/h NO 47 5 min 0 min 487 W/m 19.3 km/h
22.09.2021 14:55 18.1 C 63 % 1026.2 hPa 0.0 l/m 7.8 km/h O-NO 78 5 min 0 min 510 W/m 17.7 km/h
22.09.2021 14:50 17.7 C 63 % 1026.2 hPa 0.0 l/m 9.1 km/h O 79 5 min 0 min 535 W/m 16.1 km/h
22.09.2021 14:45 17.7 C 66 % 1026.3 hPa 0.0 l/m 7.8 km/h O-NO 61 5 min 0 min 512 W/m 17.7 km/h
22.09.2021 14:40 17.3 C 65 % 1026.3 hPa 0.0 l/m 8.9 km/h NO 37 5 min 0 min 512 W/m 22.5 km/h
22.09.2021 14:35 17.4 C 63 % 1026.4 hPa 0.0 l/m 9.0 km/h N-NO 24 5 min 0 min 546 W/m 20.9 km/h
22.09.2021 14:30 17.4 C 61 % 1026.5 hPa 0.0 l/m 9.9 km/h O-NO 67 5 min 0 min 590 W/m 22.5 km/h
22.09.2021 14:25 17.4 C 64 % 1026.6 hPa 0.0 l/m 11.4 km/h N-NO 13 5 min 0 min 595 W/m 24.1 km/h
22.09.2021 14:20 17.4 C 63 % 1026.7 hPa 0.0 l/m 11.0 km/h O-SO 102 5 min 0 min 532 W/m 22.5 km/h
22.09.2021 14:15 17.9 C 66 % 1026.8 hPa 0.0 l/m 8.1 km/h O 96 5 min 0 min 666 W/m 16.1 km/h
22.09.2021 14:10 17.3 C 66 % 1026.9 hPa 0.0 l/m 11.4 km/h O-SO 109 5 min 0 min 603 W/m 24.1 km/h
22.09.2021 14:05 17.0 C 66 % 1026.9 hPa 0.0 l/m 8.6 km/h O-NO 71 5 min 0 min 505 W/m 16.1 km/h
22.09.2021 14:00 16.9 C 67 % 1027.0 hPa 0.0 l/m 12.6 km/h O-NO 61 5 min 0 min 430 W/m 25.7 km/h
22.09.2021 13:55 17.2 C 66 % 1027.1 hPa 0.0 l/m 10.7 km/h O-NO 78 5 min 0 min 490 W/m 17.7 km/h
22.09.2021 13:50 17.5 C 65 % 1027.1 hPa 0.0 l/m 11.9 km/h NO 49 5 min 0 min 663 W/m 24.1 km/h
22.09.2021 13:45 17.3 C 65 % 1027.0 hPa 0.0 l/m 11.4 km/h O-SO 114 5 min 0 min 712 W/m 22.5 km/h
22.09.2021 13:40 17.2 C 66 % 1027.0 hPa 0.0 l/m 11.2 km/h NO 35 5 min 0 min 699 W/m 22.5 km/h
22.09.2021 13:35 17.1 C 67 % 1027.1 hPa 0.0 l/m 10.5 km/h O-NO 72 5 min 0 min 687 W/m 24.1 km/h
22.09.2021 13:30 17.0 C 67 % 1027.1 hPa 0.0 l/m 8.7 km/h O-NO 70 5 min 0 min 664 W/m 19.3 km/h
22.09.2021 13:25 16.7 C 68 % 1027.2 hPa 0.0 l/m 11.1 km/h N-NW 344 5 min 0 min 515 W/m 19.3 km/h
22.09.2021 13:20 16.8 C 70 % 1027.2 hPa 0.0 l/m 9.4 km/h NO 34 5 min 0 min 512 W/m 17.7 km/h
22.09.2021 13:15 16.4 C 68 % 1027.4 hPa 0.0 l/m 9.8 km/h O-SO 106 5 min 0 min 596 W/m 24.1 km/h
22.09.2021 13:10 16.4 C 68 % 1027.3 hPa 0.0 l/m 7.3 km/h O 99 5 min 0 min 616 W/m 22.5 km/h
22.09.2021 13:05 16.6 C 70 % 1027.3 hPa 0.0 l/m 8.5 km/h N-NO 31 5 min 0 min 647 W/m 19.3 km/h
22.09.2021 13:00 16.6 C 70 % 1027.5 hPa 0.0 l/m 8.2 km/h O-NO 70 5 min 0 min 678 W/m 20.9 km/h
22.09.2021 12:55 16.6 C 72 % 1027.5 hPa 0.0 l/m 7.5 km/h O-NO 64 5 min 0 min 660 W/m 16.1 km/h
22.09.2021 12:50 16.0 C 72 % 1027.6 hPa 0.0 l/m 9.8 km/h N 9 5 min 0 min 644 W/m 20.9 km/h
22.09.2021 12:45 15.7 C 73 % 1027.6 hPa 0.0 l/m 8.2 km/h O-NO 65 5 min 0 min 608 W/m 17.7 km/h
22.09.2021 12:40 15.7 C 74 % 1027.7 hPa 0.0 l/m 9.0 km/h O-NO 66 5 min 0 min 579 W/m 17.7 km/h
22.09.2021 12:35 15.3 C 75 % 1027.7 hPa 0.0 l/m 9.2 km/h O-NO 73 5 min 0 min 643 W/m 16.1 km/h
22.09.2021 12:30 14.9 C 75 % 1027.8 hPa 0.0 l/m 6.0 km/h O-SO 109 5 min 0 min 395 W/m 17.7 km/h
22.09.2021 12:25 14.7 C 77 % 1027.8 hPa 0.0 l/m 7.9 km/h O 92 5 min 0 min 524 W/m 17.7 km/h
22.09.2021 12:20 14.6 C 76 % 1027.8 hPa 0.0 l/m 6.6 km/h O 82 5 min 0 min 534 W/m 14.5 km/h
22.09.2021 12:15 14.6 C 79 % 1027.9 hPa 0.0 l/m 7.6 km/h N-NW 340 5 min 0 min 534 W/m 14.5 km/h
22.09.2021 12:10 14.4 C 79 % 1027.9 hPa 0.0 l/m 8.9 km/h N-NO 29 5 min 0 min 595 W/m 16.1 km/h
22.09.2021 12:05 14.1 C 81 % 1027.9 hPa 0.0 l/m 7.4 km/h N 360 0 min 0 min 324 W/m 12.9 km/h
22.09.2021 12:00 13.9 C 80 % 1028.0 hPa 0.0 l/m 7.4 km/h NO 36 0 min 0 min 258 W/m 14.5 km/h
22.09.2021 11:55 14.3 C 81 % 1028.0 hPa 0.0 l/m 4.5 km/h N 355 5 min 0 min 376 W/m 9.7 km/h
22.09.2021 11:50 14.3 C 82 % 1028.1 hPa 0.0 l/m 6.4 km/h N 355 5 min 0 min 574 W/m 14.5 km/h
22.09.2021 11:45 14.2 C 82 % 1028.1 hPa 0.0 l/m 6.3 km/h NO 56 5 min 0 min 498 W/m 11.3 km/h
22.09.2021 11:40 13.8 C 83 % 1028.1 hPa 0.0 l/m 4.5 km/h NO 44 5 min 0 min 360 W/m 9.7 km/h
22.09.2021 11:35 13.5 C 82 % 1028.2 hPa 0.0 l/m 3.8 km/h NO 55 5 min 0 min 402 W/m 14.5 km/h
22.09.2021 11:30 13.8 C 82 % 1028.2 hPa 0.0 l/m 6.1 km/h NO 45 0 min 0 min 262 W/m 14.5 km/h
22.09.2021 11:25 13.4 C 85 % 1028.2 hPa 0.0 l/m 4.4 km/h O-NO 67 0 min 0 min 288 W/m 8.0 km/h
22.09.2021 11:20 12.8 C 84 % 1028.3 hPa 0.0 l/m 4.6 km/h O 80 0 min 0 min 232 W/m 11.3 km/h
22.09.2021 11:15 12.7 C 84 % 1028.4 hPa 0.0 l/m 6.0 km/h NO 38 0 min 0 min 194 W/m 16.1 km/h
22.09.2021 11:10 12.7 C 85 % 1028.4 hPa 0.0 l/m 4.7 km/h O-SO 110 0 min 0 min 234 W/m 9.7 km/h
22.09.2021 11:05 12.7 C 84 % 1028.4 hPa 0.0 l/m 8.7 km/h O 92 5 min 0 min 356 W/m 16.1 km/h
22.09.2021 11:00 12.8 C 84 % 1028.4 hPa 0.0 l/m 7.4 km/h O 96 0 min 0 min 250 W/m 14.5 km/h
_ Min-Zeit 06:10 16:05 09:15 - 21:20 - - - - - 21:20
Minimum _ 6.0 C 59 % 1022.5 hPa - 0.0 km/h - - - - - 0.0 km/h
_ Max-Zeit 14:55 06:40 11:00 11:00 14:00 - - 11:05 11:00 13:45 14:00
Maximum _ 18.1 C 97 % 1028.4 hPa 0.0 l/m 12.6 km/h
O-NO
- - 5 min 0 min 712 W/m 25.7 km/h
NO
Durchschnitt _ 11.8 C 84 % 1025.1 hPa #0.0 l/m 3.9 km/h N-NW - #0 min. #0 min. 67 W/m 8.5 km/h